Smith Valley, Nevada Weather observations

Data are for 10 minute period ending at time listed.
 Day   Time   Solar   Ave.   Ave.  Ave.  Vector  Max.   Baro.   Total    
  of    of     Rad.   Air    Rel.  Wind   Wind   Wind  Press.  Precip.   
Year   Day            Temp.  Hum.  Speed  Dir.   Gust                    
2015   (PST)  Kw/m2    F      %     mph   deg.    mph    mb.     in.     
-------------------------------------------------------------------------
 242   12:50   0.91  -16.8   179    3.7   168     7.9   853.5    0.00 
 242   13:00   0.90  -16.9   179    5.3   190    11.0   853.4    0.00 
 242   13:10   0.90  -16.6   180    4.9   313     7.9   853.3    0.00 
 242   13:20   0.86  -16.4   180    8.2   294    15.6   853.2    0.00 
 242   13:30   0.88  -16.3   180    6.5   268    14.0   853.2    0.00 
 242   13:40   0.74  -16.4   180    7.4   294    16.1   853.1    0.00 
 242   13:50   0.84  -16.5   180    9.6   287    16.4   853.1    0.00 
 242   14:00   0.87  -16.8   179   11.2   278    18.7   853.0    0.00 
 242   14:10   0.69  -16.9   179   10.1   275    15.7   852.9    0.00 
 242   14:20   0.52  -16.8   180   13.2   283    20.5   852.9    0.00 
 242   14:30   0.48  -17.0   179   11.1   275    17.7   852.9    0.00 
 242   14:40   0.54  -17.1   179   12.5   253    19.7   852.9    0.00 
 242   14:50   0.52  -17.3   179    9.1   272    18.2   852.9    0.00 
 242   15:00   0.53  -17.6   179   10.6   254    17.8   852.8    0.00 
 242   15:10   0.79  -17.6   178   10.7   254    17.3   852.8    0.00 
 242   15:20   0.72  -17.6   179   10.2   240    21.8   852.8    0.00 
 242   15:30   0.62  -17.6   178    9.0   259    13.6   852.7    0.00 
 242   15:40   0.59  -17.4   180    8.1   272    13.9   852.7    0.00 
 242   15:50   0.54  -17.4   179    6.4   279    11.5   852.6    0.00 
 242   16:00   0.50  -17.6   179    7.8   313    14.2   852.5    0.00 
 242   16:10   0.47  -17.5   179    8.2   313    16.9   852.5    0.00 
 242   16:20   0.43  -17.5   178   10.3   305    18.2   852.6    0.00 
 242   16:30   0.38  -17.3   179   13.0   322    23.8   852.5    0.00 
 242   16:40   0.35  -17.4   179   12.4   320    20.0   852.6    0.00 
 242   16:50   0.32  -17.6   179    9.8   305    17.0   852.7    0.00 
 242   17:00   0.28  -18.0   179   12.1   315    20.0   852.7    0.00 
 242   17:10   0.25  -17.8   179   13.8   321    22.8   852.7    0.00 
 242   17:20   0.22  -18.0   178   11.6   312    17.5   852.8    0.00 
 242   17:30   0.17  -18.0   178    9.0   313    15.1   852.9    0.00 
 242   17:40   0.14  -18.4   178    7.1   296    11.8   852.9    0.00 
 242   17:50   0.10  -19.7   178    8.8   301    14.0   852.8    0.00 
 242   18:00   0.03  -22.7   176    8.2   302    13.3   852.7    0.00 
 242   18:10   0.02  -23.3   175    6.8   290    13.2   852.7    0.00 
 242   18:20   0.02  -24.2   175    8.7   276    16.7   852.6    0.00 
 242   18:30   0.01  -25.2   174    9.8   273    18.1   852.7    0.00 
 242   18:40   0.00  -25.9   174   11.5   268    18.5   852.6    0.00 
 242   18:50   0.00  -26.4   174   10.7   281    18.6   852.6    0.00 
 242   19:00   0.00  -27.5   174    8.1   312    17.5   852.8    0.00 
 242   19:10   0.00  -27.3   174    6.3   318    12.7   853.0    0.00 
 242   19:20   0.00  -27.5   173    6.7   296    10.7   853.1    0.00 
 242   19:30   0.00  -27.8   174    4.9   290    10.4   853.2    0.00 
 242   19:40   0.00  -28.0   174    4.7   279     9.9   853.3    0.00 
 242   19:50   0.00  -28.4   174    4.8   336     7.5   853.5    0.00 
 242   20:00   0.00  -29.6   174    3.7    50     5.7   853.7    0.00 
 242   20:10   0.00  -29.2   173    2.8   330     6.4   853.7    0.00 
 242   20:20   0.00  -29.4   173    2.0   154     3.8   853.9    0.00 
 242   20:30   0.00  -29.6   173    3.3   358     7.6   853.9    0.00 
 242   20:40   0.00  -29.8   173    5.3   305     7.4   853.9    0.00 
 242   20:50   0.00  -30.2   172    4.2   297     5.5   853.8    0.00 
 242   21:00   0.00  -31.2   173    2.8   356     5.8   853.9    0.00 
 242   21:10   0.00  -30.7   173    5.0   236     7.9   853.9    0.00 
 242   21:20   0.00  -30.8   173    6.4   232     8.3   853.8    0.00 
 242   21:30   0.00  -31.1   173    2.7   184     6.1   853.8    0.00 
 242   21:40   0.00  -31.5   172    4.2   149     6.2   853.9    0.00 
 242   21:50   0.00  -32.2   170    4.7   151     7.3   854.0    0.00 
 242   22:00   0.00  -33.1   171    4.2   124     6.5   854.0    0.00 
 242   22:10   0.00  -32.4   172    3.6   142     5.7   854.0    0.00 
 242   22:20   0.00  -32.5   172    3.7   214     7.1   854.1    0.00 
 242   22:30   0.00  -33.0   172    3.1   200     4.1   854.1    0.00 
 242   22:40   0.00  -33.3   172    4.3   217     5.8   854.1    0.00 
 242   22:50   0.00  -33.5   172    3.1   201     4.5   854.1    0.00 
 242   23:00   0.00  -34.9   170    2.0   172     3.1   854.2    0.00 
 242   23:10   0.00  -34.1   172    1.9   150     3.8   854.3    0.00 
 242   23:20   0.00  -34.1   172    2.2   162     3.4   854.3    0.00 
 242   23:30   0.00  -34.3   172    2.0   164     2.8   854.3    0.00 
 242   23:40   0.00  -34.5   173    2.7   159     3.7   854.3    0.00 
 242   23:50   0.00  -34.9   171    2.9   210     4.1   854.3    0.00 
 243    0:00   0.00  -36.0   171    3.2   206     4.2   854.4    0.00 
 243    0:10   0.00  -35.2   171    2.6   101     3.9   854.5    0.00 
 243    0:20   0.00  -35.3   171    2.2    79     3.7   854.5    0.00 
 243    0:30   0.00  -35.6   170    3.1   111     5.0   854.5    0.00 
 243    0:40   0.00  -35.6   170    3.1   187     5.8   854.5    0.00 
 243    0:50   0.00  -35.2   169    3.0   219     5.3   854.6    0.00 
 243    1:00   0.00  -36.6   171    1.3    91     3.3   854.7    0.00 
 243    1:10   0.00  -35.5   172    0.1    76     1.4   854.6    0.00 
 243    1:20   0.00  -34.4   172    1.1   141     3.0   854.6    0.00 
 243    1:30   0.00  -33.8   172    1.9   199     3.2   854.5    0.00 
 243    1:40   0.00  -33.8   171    3.1   194     4.8   854.5    0.00 
 243    1:50   0.00  -34.9   171    0.9   140     3.1   854.6    0.00 
 243    2:00   0.00  -36.3   171    1.5   140     3.1   854.5    0.00 
 243    2:10   0.00  -35.8   171    2.7   131     3.8   854.5    0.00 
 243    2:20   0.00  -36.3   170    1.2   200     2.1   854.5    0.00 
 243    2:30   0.00  -34.5   171    2.4   214     3.7   854.5    0.00 
 243    2:40   0.00  -18.9   175    2.0   233     2.9   854.6    0.00 
 243    2:50   0.00    3.8   176    0.6   195     2.2   854.6    0.00 
 243    3:00   0.00  -15.1   176    1.2   129     2.6   854.6    0.00 
 243    3:10   0.00  -13.8   177    1.6   323     3.9   854.7    0.00 
 243    3:20   0.00    4.4   178    0.6   337     3.4   854.8    0.00 
 243    3:30   0.00   17.8   171    1.4   234     2.2   854.7    0.00 
 243    3:40   0.00    4.7   175    1.6   195     2.0   854.8    0.00 
 243    3:50   0.00    0.7   178    1.3   165     2.0   854.8    0.00 
 243    4:00   0.00  -22.0   175    1.2   167     1.9   854.7    0.00 
 243    4:10   0.00  -13.5   175    1.4   184     3.7   854.7    0.00 
 243    4:20   0.00    7.8   174    2.7   212     4.0   854.8    0.00 
 243    4:30   0.00   15.2   169    1.7   197     2.4   854.8    0.00 
 243    4:40   0.00   22.8   164    1.1   146     2.1   854.9    0.00 
 243    4:50   0.00   14.8   171    2.1    96     3.1   855.0    0.00 
 243    5:00   0.00   23.2   158    1.5   138     2.2   855.0    0.00 
 243    5:10   0.00   22.0   159    0.9   167     1.7   855.1    0.00 
 243    5:20   0.00   -6.1   173    0.8   139     1.4   855.1    0.00 
 243    5:30   0.01  -11.3   173    0.8   133     1.5   855.2    0.00 
 243    5:40   0.01  -18.8   173    1.2   111     2.6   855.3    0.00 
 243    5:50   0.03  -29.1   170    1.0   167     2.3   855.4    0.00 
 243    6:00   0.05  -29.3   171    1.9   212     2.4   855.5    0.00 
 243    6:10   0.08  -33.1   171    1.6   226     2.2   855.5    0.00 
 243    6:20   0.11  -32.8   172    1.5   237     2.9   855.6    0.00 
 243    6:30   0.14  -30.8   174    0.7   120     2.6   855.6    0.00 
 243    6:40   0.16  -27.0   177    0.0     0     0.0   855.7    0.00 
 243    6:50   0.19  -22.2   178    0.1   278     0.9   855.6    0.00 
 243    7:00   0.22  -20.8   180    0.0   306     0.2   855.5    0.00 
 243    7:10   0.25  -20.1   180    0.9    14     2.4   855.5    0.00 
 243    7:20   0.28  -20.6   179    2.4    85     3.6   855.4    0.00 
 243    7:30   0.31  -21.0   178    1.6   119     3.2   855.3    0.00 
 243    7:40   0.34  -21.0   178    1.3   113     2.7   855.2    0.00 
 243    7:50   0.39  -21.1   178    0.8    80     1.8   855.1    0.00 
 243    8:00   0.43  -21.3   178    0.9   110     2.0   855.0    0.00 
 243    8:10   0.48  -21.1   178    1.0    71     2.2   855.0    0.00 
 243    8:20   0.52  -20.8   178    0.9   246     2.3   855.0    0.00 
 243    8:30   0.55  -20.6   178    1.1   259     4.0   855.0    0.00 
 243    8:40   0.58  -20.5   177    2.7   268     4.3   855.1    0.00 
 243    8:50   0.61  -20.4   177    2.4   282     5.3   855.2    0.00 
 243    9:00   0.63  -20.3   177    2.0   295     4.6   855.2    0.00 
 243    9:10   0.60  -19.9   178    2.2   290     6.0   855.2    0.00 
 243    9:20   0.69  -19.5   178    2.4   320     6.4   855.2    0.00 
 243    9:30   0.72  -19.3   179    1.5   350     3.9   855.2    0.00 
 243    9:40   0.74  -19.1   178    2.8   331     7.8   855.3    0.00 
 243    9:50   0.77  -18.9   178    4.1   321     8.0   855.2    0.00 
 243   10:00   0.69  -19.0   178    3.7   350     7.7   855.2    0.00 
 243   10:10   0.79  -18.7   178    3.2    25     8.1   855.1    0.00 
 243   10:20   0.82  -18.5   179    3.0    24     7.4   855.0    0.00 
 243   10:30   0.84  -18.2   178    2.2     7     6.5   854.9    0.00 
 243   10:40   0.86  -18.1   178    3.5   329     7.3   854.8    0.00 
 243   10:50   0.87  -17.9   179    3.8   316     7.8   854.7    0.00 
 243   11:00   0.89  -17.9   180    2.9    63     5.8   854.6    0.00 
 243   11:10   0.90  -17.7   180    1.4   106     4.8   854.4    0.00 
 243   11:20   0.91  -17.7   178    2.4    33     6.6   854.3    0.00 
 243   11:30   0.91  -17.5   179    2.7   352     7.5   854.2    0.00 
 243   11:40   0.92  -17.3   179    3.8   282     9.9   854.0    0.00 
 243   11:50   0.92  -17.2   179    4.8   287    10.6   853.8    0.00 
 243   12:00   0.92  -17.4   179    4.9   289     9.6   853.7    0.00 
 243   12:10   0.92  -17.3   179    2.4   306     8.3   853.6    0.00 
 243   12:20   0.92  -17.2   179    2.6   320     6.6   853.4    0.00 
 243   12:30   0.92  -17.3   179    4.3   329     8.1   853.2    0.00 
 243   12:40   0.91  -17.2   179    3.3   267     6.6   853.1    0.00 

Return to Smith Valley graphs page.


Western Regional Climate Center,wrcc@dri.edu